Time;durP1;ratioP1;P1;durP2;ratioP2;P2;SDS_P1;SDS_P2;PMS_P1;PMS_P2;Temp;Humidity;BMP_temperature;BMP_pressure;BME280_temperature;BME280_humidity;BME280_pressure;Samples;Min_cycle;Max_cycle;Signal;HPM_P1;HPM_P2
2022/04/23 00:01:44;;;;;;;13.00;5.30;;;11.90;99.90;;;;;;5134400;27;20305;-76
2022/04/23 00:04:13;;;;;;;14.10;6.57;;;11.90;99.90;;;;;;5134491;27;20269;-76
2022/04/23 00:06:39;;;;;;;12.70;5.57;;;11.90;99.90;;;;;;5134423;27;20338;-76
2022/04/23 00:09:05;;;;;;;12.33;6.13;;;11.80;99.90;;;;;;5134029;27;20764;-77
2022/04/23 00:11:32;;;;;;;13.17;5.83;;;11.80;99.90;;;;;;5134290;27;20087;-77
2022/04/23 00:13:59;;;;;;;10.50;6.20;;;11.80;99.90;;;;;;5133989;27;20284;-77
2022/04/23 00:16:25;;;;;;;9.07;5.33;;;11.80;99.90;;;;;;5134256;27;20300;-77
2022/04/23 00:18:51;;;;;;;9.23;5.53;;;11.80;99.90;;;;;;5132709;27;20277;-76
2022/04/23 00:21:18;;;;;;;11.93;5.60;;;11.70;99.90;;;;;;5134083;27;20300;-77
2022/04/23 00:23:45;;;;;;;12.80;6.60;;;11.70;99.90;;;;;;5132711;27;20073;-77
2022/04/23 00:26:11;;;;;;;14.63;6.97;;;11.70;99.90;;;;;;5134110;27;20338;-77
2022/04/23 00:28:37;;;;;;;9.97;6.37;;;11.70;99.90;;;;;;5134199;27;20760;-77
2022/04/23 00:31:04;;;;;;;11.93;7.33;;;11.60;99.90;;;;;;5132740;27;20121;-77
2022/04/23 00:33:29;;;;;;;15.93;8.00;;;11.60;99.90;;;;;;5134050;27;20047;-78
2022/04/23 00:35:55;;;;;;;11.80;7.57;;;11.70;99.90;;;;;;5133717;27;20354;-77
2022/04/23 00:38:21;;;;;;;10.20;7.20;;;11.70;99.90;;;;;;5133271;28;20103;-77
2022/04/23 00:40:46;;;;;;;11.60;7.47;;;11.80;99.90;;;;;;5133718;28;20082;-75
2022/04/23 00:43:27;;;;;;;11.77;7.73;;;11.80;99.90;;;;;;5133642;27;20409;-76
2022/04/23 00:45:53;;;;;;;13.97;8.30;;;11.70;99.90;;;;;;5115612;28;20055;-76
2022/04/23 00:48:19;;;;;;;11.33;7.33;;;11.60;99.90;;;;;;5133985;27;20277;-77
2022/04/23 00:50:44;;;;;;;12.57;7.50;;;11.60;99.90;;;;;;5133797;28;20268;-77
2022/04/23 00:53:11;;;;;;;11.47;7.30;;;11.60;99.90;;;;;;5132222;28;20402;-76
2022/04/23 00:55:37;;;;;;;11.63;7.93;;;11.60;99.90;;;;;;5133773;27;20043;-76
2022/04/23 00:58:04;;;;;;;14.17;8.07;;;11.50;99.90;;;;;;5133436;27;20275;-76
2022/04/23 01:00:30;;;;;;;12.93;8.07;;;11.50;99.90;;;;;;5132403;28;20047;-76
2022/04/23 01:02:55;;;;;;;11.67;7.03;;;11.60;99.90;;;;;;5133461;27;20284;-76
2022/04/23 01:05:26;;;;;;;12.90;7.33;;;11.50;99.90;;;;;;5132465;28;20047;-76
2022/04/23 01:07:52;;;;;;;12.47;7.53;;;11.40;99.90;;;;;;5133491;27;20490;-77
2022/04/23 01:10:19;;;;;;;12.03;7.47;;;11.30;99.90;;;;;;5132702;28;20317;-77
2022/04/23 01:12:46;;;;;;;14.17;7.43;;;11.40;99.90;;;;;;5133452;27;20831;-77
2022/04/23 01:15:16;;;;;;;11.87;6.83;;;11.30;99.90;;;;;;5133255;27;20402;-77
2022/04/23 01:17:43;;;;;;;10.10;7.13;;;11.30;99.90;;;;;;5132751;28;20310;-77
2022/04/23 01:20:08;;;;;;;13.27;7.33;;;11.30;99.90;;;;;;5132972;27;20280;-77
2022/04/23 01:22:36;;;;;;;14.93;7.50;;;11.20;99.90;;;;;;5132242;28;20379;-77
2022/04/23 01:25:06;;;;;;;12.60;7.10;;;11.20;99.90;;;;;;5133229;27;20051;-77
2022/04/23 01:27:32;;;;;;;11.83;7.30;;;11.20;99.90;;;;;;5133452;27;20294;-77
2022/04/23 01:29:58;;;;;;;10.57;7.63;;;11.20;99.90;;;;;;5133202;27;20272;-77
2022/04/23 01:32:24;;;;;;;12.30;7.27;;;11.30;99.90;;;;;;5133496;27;20273;-77
2022/04/23 01:34:50;;;;;;;10.20;7.13;;;11.20;99.90;;;;;;5135021;27;20273;-77
2022/04/23 01:37:19;;;;;;;11.93;7.37;;;11.20;99.90;;;;;;5135680;27;20334;-76
2022/04/23 01:39:49;;;;;;;11.60;7.53;;;11.10;99.90;;;;;;5137081;27;20093;-77
2022/04/23 01:42:17;;;;;;;14.33;7.97;;;11.00;99.90;;;;;;5136546;27;20296;-77
2022/04/23 01:44:48;;;;;;;12.30;7.50;;;11.00;99.90;;;;;;5137336;27;20326;-77
2022/04/23 01:47:15;;;;;;;13.87;7.17;;;11.00;99.90;;;;;;5135503;27;21296;-77
2022/04/23 01:49:41;;;;;;;12.87;6.73;;;11.10;99.90;;;;;;5118933;27;20320;-76
2022/04/23 01:52:07;;;;;;;12.93;7.83;;;11.10;99.90;;;;;;5136649;27;20269;-76
2022/04/23 01:54:34;;;;;;;11.87;8.63;;;11.10;99.90;;;;;;5137175;27;20360;-76
2022/04/23 01:57:00;;;;;;;14.73;7.70;;;11.00;99.90;;;;;;5136560;27;20493;-76
2022/04/23 01:59:26;;;;;;;12.30;7.70;;;11.00;99.90;;;;;;5136850;27;20287;-77
2022/04/23 02:01:53;;;;;;;13.10;8.17;;;11.00;99.90;;;;;;5136663;27;20340;-77
2022/04/23 02:04:19;;;;;;;12.37;8.60;;;10.90;99.90;;;;;;5136168;27;20272;-77
2022/04/23 02:06:45;;;;;;;9.87;7.10;;;11.00;99.90;;;;;;5136638;27;20289;-77
2022/04/23 02:09:12;;;;;;;12.20;8.57;;;10.80;99.90;;;;;;5136693;27;20360;-77
2022/04/23 02:11:37;;;;;;;12.53;9.00;;;10.80;99.90;;;;;;5135760;27;20288;-77
2022/04/23 02:14:03;;;;;;;10.47;8.20;;;10.80;99.90;;;;;;5136126;27;20748;-76
2022/04/23 02:16:30;;;;;;;12.40;8.50;;;10.80;99.90;;;;;;5136624;27;20054;-77
2022/04/23 02:18:57;;;;;;;14.10;8.93;;;10.80;99.90;;;;;;5136416;27;20047;-77
2022/04/23 02:21:26;;;;;;;13.40;8.97;;;10.80;99.90;;;;;;5136307;27;20296;-77
2022/04/23 02:23:53;;;;;;;12.67;9.37;;;10.80;99.90;;;;;;5136427;27;20281;-78
2022/04/23 02:26:20;;;;;;;15.93;8.73;;;10.80;99.90;;;;;;5134789;27;21250;-77
2022/04/23 02:28:50;;;;;;;15.00;8.77;;;10.70;99.90;;;;;;5136221;27;20284;-77
2022/04/23 02:31:16;;;;;;;14.73;9.20;;;10.60;99.90;;;;;;5134616;27;20284;-76
2022/04/23 02:33:44;;;;;;;13.70;9.33;;;10.60;99.90;;;;;;5136068;27;20277;-77
2022/04/23 02:36:11;;;;;;;17.47;9.87;;;10.60;99.90;;;;;;5134596;27;20284;-77
2022/04/23 02:38:41;;;;;;;17.53;9.63;;;10.60;99.90;;;;;;5135981;27;20273;-77
2022/04/23 02:41:08;;;;;;;13.23;8.97;;;10.60;99.90;;;;;;5135663;27;20341;-76
2022/04/23 02:43:38;;;;;;;15.40;9.40;;;10.60;99.90;;;;;;5135408;27;20280;-76
2022/04/23 02:46:05;;;;;;;15.47;9.47;;;10.60;99.90;;;;;;5134409;27;20292;-77
2022/04/23 02:48:31;;;;;;;12.33;9.50;;;10.50;99.90;;;;;;5135931;27;20373;-77
2022/04/23 02:50:57;;;;;;;13.63;9.60;;;10.50;99.90;;;;;;5135882;27;20269;-77
2022/04/23 02:53:23;;;;;;;15.30;9.90;;;10.60;99.90;;;;;;5135457;27;20805;-77
2022/04/23 02:55:48;;;;;;;19.03;9.83;;;10.60;99.90;;;;;;5135702;27;20277;-78
2022/04/23 02:58:14;;;;;;;15.20;9.17;;;10.60;99.90;;;;;;5134397;27;20074;-78
2022/04/23 03:00:43;;;;;;;12.93;9.40;;;10.60;99.90;;;;;;5134646;27;20521;-78
2022/04/23 03:03:10;;;;;;;13.90;9.00;;;10.60;99.90;;;;;;5135381;27;20047;-77
2022/04/23 03:05:37;;;;;;;14.40;9.60;;;10.60;99.90;;;;;;5134519;27;20368;-78
2022/04/23 03:08:03;;;;;;;14.00;9.87;;;10.60;99.90;;;;;;5135335;27;20285;-76
2022/04/23 03:10:30;;;;;;;15.17;10.10;;;10.50;99.90;;;;;;5135684;27;20275;-77
2022/04/23 03:12:57;;;;;;;15.03;10.33;;;10.60;99.90;;;;;;5135494;27;20280;-78
2022/04/23 03:15:26;;;;;;;15.33;9.80;;;10.50;99.90;;;;;;5135033;27;20319;-78
2022/04/23 03:18:07;;;;;;;13.27;9.40;;;10.50;99.90;;;;;;5135238;27;20277;-78
2022/04/23 03:20:33;;;;;;;17.87;10.37;;;10.50;99.90;;;;;;5135164;27;20277;-77
2022/04/23 03:22:59;;;;;;;16.50;10.33;;;10.50;99.90;;;;;;5135472;27;20326;-78
2022/04/23 03:25:25;;;;;;;14.77;9.60;;;10.50;99.90;;;;;;5134840;27;20542;-77
2022/04/23 03:27:51;;;;;;;16.10;10.17;;;10.50;99.90;;;;;;5134297;27;20047;-78
2022/04/23 03:30:16;;;;;;;19.07;10.60;;;10.50;99.90;;;;;;5168095;27;20624;-78
2022/04/23 03:32:42;;;;;;;14.50;10.23;;;10.50;99.90;;;;;;5133858;27;20126;-77
2022/04/23 03:35:08;;;;;;;14.23;10.60;;;10.40;99.90;;;;;;5134499;27;20179;-77
2022/04/23 03:37:38;;;;;;;14.60;10.37;;;10.40;99.90;;;;;;5135125;27;20042;-77
2022/04/23 03:40:08;;;;;;;17.77;10.67;;;10.40;99.90;;;;;;5134857;27;20674;-78
2022/04/23 03:42:35;;;;;;;11.13;9.57;;;10.50;99.90;;;;;;5133231;27;20309;-78
2022/04/23 03:45:02;;;;;;;15.57;10.37;;;10.50;99.90;;;;;;5134393;27;20765;-78
2022/04/23 03:47:28;;;;;;;15.70;9.80;;;10.50;99.90;;;;;;5134413;27;20280;-77
2022/04/23 03:49:54;;;;;;;12.37;9.30;;;10.40;99.90;;;;;;5134725;27;20315;-77
2022/04/23 03:52:20;;;;;;;12.83;9.27;;;10.40;99.90;;;;;;5134309;27;20043;-77
2022/04/23 03:54:47;;;;;;;13.63;10.20;;;10.40;99.90;;;;;;5134527;27;20280;-78
2022/04/23 03:57:12;;;;;;;13.83;9.50;;;10.40;99.90;;;;;;5133703;27;20058;-78
2022/04/23 03:59:38;;;;;;;13.13;9.70;;;10.30;99.90;;;;;;5133458;27;20281;-78
2022/04/23 04:02:06;;;;;;;12.80;9.63;;;10.40;99.90;;;;;;5134353;27;20043;-78
2022/04/23 04:04:33;;;;;;;14.03;9.37;;;10.40;99.90;;;;;;5134108;27;20085;-78
2022/04/23 04:07:02;;;;;;;13.93;9.53;;;10.30;99.90;;;;;;5134363;27;20273;-79
2022/04/23 04:09:28;;;;;;;13.83;9.80;;;10.40;99.90;;;;;;5133989;27;20283;-78
2022/04/23 04:12:03;;;;;;;12.50;9.70;;;10.30;99.90;;;;;;5116223;27;20281;-77
2022/04/23 04:14:30;;;;;;;13.13;10.30;;;10.30;99.90;;;;;;5133923;27;20280;-77
2022/04/23 04:16:58;;;;;;;12.57;9.43;;;10.30;99.90;;;;;;5133421;27;20161;-79
2022/04/23 04:19:26;;;;;;;13.30;9.43;;;10.40;99.90;;;;;;5132726;27;20402;-78
2022/04/23 04:21:52;;;;;;;10.77;8.93;;;10.40;99.90;;;;;;5115867;28;20311;-78
2022/04/23 04:24:18;;;;;;;16.23;9.27;;;10.30;99.90;;;;;;5115535;27;20624;-78
2022/04/23 04:26:46;;;;;;;14.63;9.00;;;10.30;99.90;;;;;;5134323;27;20273;-77
2022/04/23 04:29:12;;;;;;;12.63;9.37;;;10.20;99.90;;;;;;5133857;27;20090;-76
2022/04/23 04:31:47;;;;;;;12.90;8.93;;;10.20;99.90;;;;;;5133694;27;20885;-77
2022/04/23 04:34:30;;;;;;;13.00;9.88;;;10.20;99.90;;;;;;5133953;27;20272;-76
2022/04/23 04:37:12;;;;;;;14.03;9.70;;;10.10;99.90;;;;;;5134008;27;20095;-77
2022/04/23 04:39:42;;;;;;;18.37;9.57;;;10.10;99.90;;;;;;5134178;27;20283;-77
2022/04/23 04:42:09;;;;;;;11.77;9.03;;;10.10;99.90;;;;;;5132417;28;20426;-76
2022/04/23 04:44:35;;;;;;;13.80;9.93;;;10.20;99.90;;;;;;5133712;27;20697;-77
2022/04/23 04:47:01;;;;;;;14.03;9.63;;;10.20;99.90;;;;;;5133886;27;20312;-77
2022/04/23 04:49:27;;;;;;;11.60;8.83;;;10.20;99.90;;;;;;5133555;28;20315;-77
2022/04/23 04:51:54;;;;;;;13.57;8.73;;;10.20;99.90;;;;;;5116108;28;20055;-77
2022/04/23 04:54:21;;;;;;;11.63;9.27;;;10.20;99.90;;;;;;5133249;27;20760;-77
2022/04/23 04:56:54;;;;;;;13.17;9.10;;;10.20;99.90;;;;;;5132911;28;20280;-77
2022/04/23 04:59:23;;;;;;;14.83;9.20;;;10.20;99.90;;;;;;5133523;27;20354;-77
2022/04/23 05:01:52;;;;;;;11.30;9.10;;;10.20;99.90;;;;;;5133794;27;20641;-77
2022/04/23 05:04:18;;;;;;;12.63;8.70;;;10.20;99.90;;;;;;5133454;27;20371;-77
2022/04/23 05:06:44;;;;;;;10.27;8.83;;;10.20;99.90;;;;;;5133658;27;20360;-78
2022/04/23 05:09:10;;;;;;;11.67;9.17;;;10.20;99.90;;;;;;5133953;27;20311;-77
2022/04/23 05:11:36;;;;;;;13.70;9.40;;;10.20;99.90;;;;;;5136182;27;20106;-77
2022/04/23 05:14:01;;;;;;;11.40;8.43;;;10.20;99.90;;;;;;5137943;27;20050;-78
2022/04/23 05:16:27;;;;;;;11.50;9.43;;;10.20;99.90;;;;;;5137647;27;20051;-78
2022/04/23 05:18:53;;;;;;;11.07;8.43;;;10.30;99.90;;;;;;5137594;27;20122;-78
2022/04/23 05:21:19;;;;;;;10.27;8.40;;;10.30;99.90;;;;;;5137191;27;20102;-77
2022/04/23 05:23:44;;;;;;;12.77;9.70;;;10.30;99.90;;;;;;5137644;27;20079;-78
2022/04/23 05:26:10;;;;;;;10.37;8.77;;;10.30;99.90;;;;;;5136508;27;20050;-77
2022/04/23 05:28:36;;;;;;;11.00;8.47;;;10.30;99.90;;;;;;5137108;27;20078;-77
2022/04/23 05:31:03;;;;;;;10.73;8.20;;;10.30;99.90;;;;;;5137209;27;20130;-77
2022/04/23 05:33:29;;;;;;;11.97;9.10;;;10.30;99.90;;;;;;5136984;27;20471;-77
2022/04/23 05:35:54;;;;;;;10.80;8.53;;;10.40;99.90;;;;;;5137114;27;20277;-78
2022/04/23 05:38:21;;;;;;;10.80;8.27;;;10.50;99.90;;;;;;5136635;27;20090;-77
2022/04/23 05:40:48;;;;;;;13.37;8.67;;;10.50;99.90;;;;;;5137136;27;20035;-79
2022/04/23 05:43:14;;;;;;;12.40;8.93;;;10.60;99.90;;;;;;5136758;27;20280;-78
2022/04/23 05:45:40;;;;;;;13.17;9.07;;;10.60;99.90;;;;;;5136517;27;20457;-77
2022/04/23 05:48:06;;;;;;;14.10;9.10;;;10.60;99.90;;;;;;5137077;27;20047;-78
2022/04/23 05:50:32;;;;;;;12.30;8.37;;;10.60;99.90;;;;;;5136348;27;20760;-77
2022/04/23 05:52:57;;;;;;;9.93;8.30;;;11.10;99.90;;;;;;5136923;27;20082;-77
2022/04/23 05:55:25;;;;;;;11.57;8.07;;;;;;;;;;5136528;27;20054;-76
2022/04/23 05:57:51;;;;;;;11.20;7.93;;;;;;;;;;5136879;27;20043;-77
2022/04/23 06:00:17;;;;;;;9.90;7.57;;;;;;;;;;5136721;27;20287;-77
2022/04/23 06:02:43;;;;;;;9.67;7.83;;;14.20;99.90;;;;;;5136445;27;20339;-77
2022/04/23 06:05:10;;;;;;;10.47;8.23;;;14.50;96.90;;;;;;5135490;27;20305;-77
2022/04/23 06:07:36;;;;;;;8.90;7.17;;;15.00;91.90;;;;;;5136348;27;20552;-77
2022/04/23 06:10:03;;;;;;;9.40;7.47;;;15.40;93.10;;;;;;5136641;27;20350;-77
2022/04/23 06:12:29;;;;;;;9.83;7.80;;;15.90;88.60;;;;;;5136195;27;20269;-77
2022/04/23 06:14:54;;;;;;;10.20;7.80;;;16.40;82.80;;;;;;5136779;27;20279;-77
2022/04/23 06:17:25;;;;;;;10.17;7.10;;;16.60;75.40;;;;;;5136444;27;20047;-77
2022/04/23 06:19:50;;;;;;;10.17;7.07;;;17.20;70.30;;;;;;5134830;27;20043;-78
2022/04/23 06:22:16;;;;;;;9.47;7.50;;;17.30;90.50;;;;;;5136360;27;20346;-77
2022/04/23 06:24:42;;;;;;;9.87;8.10;;;17.20;64.90;;;;;;5136021;27;20047;-77
2022/04/23 06:27:08;;;;;;;9.17;7.70;;;17.50;73.00;;;;;;5136304;27;20126;-78
2022/04/23 06:29:36;;;;;;;9.50;7.40;;;17.80;62.30;;;;;;5135993;27;20047;-77
2022/04/23 06:32:02;;;;;;;8.90;7.10;;;;;;;;;;5136120;27;20047;-77
2022/04/23 06:34:28;;;;;;;11.77;7.07;;;18.40;60.40;;;;;;5135814;27;20280;-76
2022/04/23 06:36:53;;;;;;;10.90;7.23;;;18.60;58.90;;;;;;5135454;27;20476;-77
2022/04/23 06:39:19;;;;;;;8.30;6.27;;;18.60;56.80;;;;;;5136148;27;20086;-77
2022/04/23 06:41:45;;;;;;;9.90;7.40;;;18.60;56.60;;;;;;5135690;27;20914;-78
2022/04/23 06:44:10;;;;;;;9.40;7.77;;;18.50;55.60;;;;;;5135484;27;20047;-79
2022/04/23 06:46:36;;;;;;;10.47;7.40;;;18.40;55.60;;;;;;5135533;27;20043;-78
2022/04/23 06:49:05;;;;;;;8.93;7.80;;;18.20;55.20;;;;;;5135796;27;20058;-78
2022/04/23 06:51:31;;;;;;;9.27;7.23;;;18.10;55.80;;;;;;5134357;27;20085;-78
2022/04/23 06:53:57;;;;;;;9.90;7.67;;;18.30;56.10;;;;;;5135791;27;20096;-78
2022/04/23 06:56:23;;;;;;;9.00;7.13;;;18.50;55.40;;;;;;5135741;27;20043;-78
2022/04/23 06:58:48;;;;;;;10.90;8.57;;;18.50;54.00;;;;;;5134037;27;20035;-77
2022/04/23 07:01:15;;;;;;;10.53;7.23;;;18.60;53.60;;;;;;5135215;27;20078;-77
2022/04/23 07:03:41;;;;;;;8.87;7.83;;;19.00;52.10;;;;;;5135356;27;20058;-76
2022/04/23 07:06:07;;;;;;;9.60;7.40;;;18.90;53.10;;;;;;5134232;27;20439;-77
2022/04/23 07:08:33;;;;;;;9.50;7.13;;;18.80;52.90;;;;;;5135225;27;20046;-76
2022/04/23 07:10:58;;;;;;;8.67;7.40;;;19.30;58.40;;;;;;5135412;27;20107;-77
2022/04/23 07:13:25;;;;;;;8.50;7.57;;;19.80;52.90;;;;;;5134100;27;20050;-77
2022/04/23 07:15:51;;;;;;;13.17;8.43;;;20.10;50.70;;;;;;5135016;27;20058;-76
2022/04/23 07:18:17;;;;;;;9.23;8.23;;;;;;;;;;5135476;27;20387;-76
2022/04/23 07:20:42;;;;;;;9.40;7.67;;;20.20;49.00;;;;;;5134767;27;20047;-76
2022/04/23 07:25:54;;;;;;;9.57;8.32;;;20.20;47.70;;;;;;5134853;27;20043;-77
2022/04/23 07:28:22;;;;;;;9.20;8.13;;;19.80;48.40;;;;;;5135074;27;20495;-77
2022/04/23 07:30:48;;;;;;;10.27;8.40;;;20.10;51.30;;;;;;5134706;27;20043;-76
2022/04/23 07:37:28;;;;;;;11.63;8.50;;;20.00;50.20;;;;;;5134592;27;20047;-76
2022/04/23 07:38:44;;;;;;;9.87;8.80;;;;;;;;;;5134623;27;20058;-76
2022/04/23 07:41:11;;;;;;;12.63;8.70;;;20.40;46.80;;;;;;5134869;27;20297;-76
2022/04/23 07:43:37;;;;;;;11.33;8.93;;;20.50;46.40;;;;;;5134064;27;20051;-77
2022/04/23 07:46:03;;;;;;;12.27;9.17;;;20.40;45.80;;;;;;5133795;27;20130;-76
2022/04/23 07:48:33;;;;;;;9.93;8.57;;;20.40;46.80;;;;;;5134702;27;20125;-77
2022/04/23 07:51:02;;;;;;;11.73;9.47;;;20.40;46.60;;;;;;5134662;27;20039;-76
2022/04/23 07:53:28;;;;;;;10.70;8.87;;;20.30;45.60;;;;;;5134533;27;20410;-77
2022/04/23 07:55:54;;;;;;;10.43;8.17;;;19.90;45.10;;;;;;5133315;27;20493;-76
2022/04/23 07:58:20;;;;;;;10.57;8.47;;;19.90;46.30;;;;;;5134570;27;20082;-76
2022/04/23 08:00:45;;;;;;;8.87;7.87;;;19.40;46.50;;;;;;5134114;27;20039;-76
2022/04/23 08:03:11;;;;;;;10.53;8.23;;;18.60;47.00;;;;;;5133452;27;20096;-76
2022/04/23 08:05:37;;;;;;;11.07;8.60;;;17.80;48.40;;;;;;5132881;27;20149;-76
2022/04/23 08:08:03;;;;;;;10.50;8.67;;;17.30;49.80;;;;;;5133394;27;20501;-76
2022/04/23 08:10:29;;;;;;;13.03;8.27;;;;;;;;;;5134353;27;20130;-75
2022/04/23 08:12:55;;;;;;;10.63;8.03;;;16.80;51.50;;;;;;5133953;27;20111;-76
2022/04/23 08:15:22;;;;;;;10.80;7.77;;;16.60;52.20;;;;;;5133357;27;20044;-76
2022/04/23 08:17:48;;;;;;;10.20;7.60;;;16.50;52.10;;;;;;5133920;27;20096;-76
2022/04/23 08:20:14;;;;;;;10.07;8.03;;;16.30;53.10;;;;;;5134128;27;20047;-76
2022/04/23 08:22:39;;;;;;;10.27;7.60;;;16.10;53.30;;;;;;5134032;27;20039;-76
2022/04/23 08:25:05;;;;;;;9.20;8.17;;;16.00;53.70;;;;;;5134059;27;20482;-76
2022/04/23 08:27:49;;;;;;;9.47;7.83;;;15.80;54.30;;;;;;5134123;27;20050;-76
2022/04/23 08:32:59;;;;;;;10.63;7.77;;;15.60;55.00;;;;;;5133780;27;20130;-76
2022/04/23 08:35:24;;;;;;;9.47;7.70;;;15.50;55.60;;;;;;5134141;27;20131;-76
2022/04/23 08:37:50;;;;;;;10.07;7.77;;;15.50;56.10;;;;;;5133294;27;20051;-76
2022/04/23 08:40:16;;;;;;;11.13;8.30;;;15.50;57.40;;;;;;5132336;27;20095;-75
2022/04/23 08:42:42;;;;;;;9.73;8.27;;;15.60;72.20;;;;;;5133340;27;20054;-76
2022/04/23 08:45:10;;;;;;;9.73;7.57;;;15.70;63.20;;;;;;5139192;27;20055;-77
2022/04/23 08:47:36;;;;;;;8.33;7.13;;;15.60;62.20;;;;;;5139863;27;20039;-76
2022/04/23 08:50:05;;;;;;;8.83;7.63;;;15.60;58.10;;;;;;5139227;27;20107;-76
2022/04/23 08:52:32;;;;;;;12.00;7.87;;;15.50;58.00;;;;;;5139107;27;20407;-76
2022/04/23 08:55:05;;;;;;;9.13;8.10;;;15.60;57.20;;;;;;5140451;27;20054;-79
2022/04/23 08:57:32;;;;;;;10.00;7.97;;;15.60;56.90;;;;;;5140998;27;20260;-77
2022/04/23 08:59:59;;;;;;;11.50;7.73;;;15.60;57.20;;;;;;5140480;27;20632;-76
2022/04/23 09:02:30;;;;;;;10.80;7.60;;;15.40;57.20;;;;;;5139391;27;20296;-75
2022/04/23 09:04:56;;;;;;;9.23;7.80;;;15.40;57.70;;;;;;5139263;27;20264;-73
2022/04/23 09:07:24;;;;;;;15.37;7.57;;;15.30;57.30;;;;;;5140592;27;20288;-72
2022/04/23 09:09:51;;;;;;;9.60;7.47;;;15.40;57.50;;;;;;5140264;27;20156;-74
2022/04/23 09:12:17;;;;;;;10.57;7.93;;;15.50;57.80;;;;;;5140505;27;20269;-71
2022/04/23 09:14:46;;;;;;;10.37;7.53;;;15.60;57.80;;;;;;5140147;27;20281;-69
2022/04/23 09:25:44;;;;;;;10.77;7.50;;;15.50;53.40;;;;;;5140114;27;20051;-72
2022/04/23 09:28:26;;;;;;;12.67;7.70;;;15.50;53.80;;;;;;5139425;27;20277;-68
2022/04/23 09:30:54;;;;;;;12.87;7.70;;;15.40;53.80;;;;;;5140142;27;20273;-68
2022/04/23 09:33:27;;;;;;;9.00;7.00;;;15.50;54.50;;;;;;5139228;27;20289;-66
2022/04/23 09:36:03;;;;;;;10.13;6.87;;;;;;;;;;5139055;27;20748;-66
2022/04/23 09:38:30;;;;;;;14.60;7.60;;;;;;;;;;5139297;27;20291;-71
2022/04/23 09:40:58;;;;;;;12.23;7.77;;;;;;;;;;5139923;27;20280;-69
2022/04/23 09:43:25;;;;;;;15.13;7.00;;;;;;;;;;5139836;27;20281;-73
2022/04/23 09:46:04;;;;;;;11.60;7.60;;;;;;;;;;5139742;27;20693;-73
2022/04/23 09:48:31;;;;;;;10.00;7.47;;;;;;;;;;5140157;27;20277;-69
2022/04/23 09:50:57;;;;;;;9.57;7.53;;;;;;;;;;5139703;27;20645;-70
2022/04/23 09:53:29;;;;;;;13.50;7.53;;;;;;;;;;5140067;27;20276;-69
2022/04/23 09:55:59;;;;;;;10.23;6.87;;;;;;;;;;5135915;27;20748;-70
2022/04/23 09:58:32;;;;;;;9.67;6.70;;;16.10;90.40;;;;;;5136287;27;20316;-69
2022/04/23 10:00:59;;;;;;;9.60;6.80;;;16.00;52.50;;;;;;5136013;27;20284;-71
2022/04/23 10:03:32;;;;;;;9.57;6.67;;;16.10;52.90;;;;;;5136312;27;20276;-72
2022/04/23 10:06:00;;;;;;;13.07;7.33;;;16.10;52.20;;;;;;5136051;27;20291;-72
2022/04/23 10:08:31;;;;;;;9.07;7.37;;;16.10;52.20;;;;;;5135410;27;20281;-74
2022/04/23 10:11:14;;;;;;;11.83;7.07;;;16.10;52.60;;;;;;5136350;27;20277;-72
2022/04/23 10:13:45;;;;;;;10.13;7.40;;;16.10;52.90;;;;;;5137066;27;20283;-72
2022/04/23 10:16:12;;;;;;;12.07;7.37;;;16.00;51.70;;;;;;5136295;27;20304;-70
2022/04/23 10:18:38;;;;;;;10.27;7.07;;;16.00;51.60;;;;;;5136417;27;20268;-70
2022/04/23 10:21:09;;;;;;;10.40;6.97;;;16.10;69.60;;;;;;5136021;27;20364;-72
2022/04/23 10:23:59;;;;;;;11.07;7.90;;;16.00;68.10;;;;;;5136013;27;20269;-71
2022/04/23 10:26:50;;;;;;;12.47;8.00;;;16.10;73.90;;;;;;5135391;27;20284;-71
2022/04/23 10:29:24;;;;;;;9.60;7.33;;;16.10;67.70;;;;;;5135395;27;20289;-73
2022/04/23 10:32:11;;;;;;;10.93;7.47;;;16.10;67.10;;;;;;5135989;27;20273;-73
2022/04/23 10:34:38;;;;;;;10.97;7.73;;;16.10;60.20;;;;;;5136237;27;20646;-70
2022/04/23 10:37:20;;;;;;;9.60;8.30;;;16.00;53.50;;;;;;5135803;27;20284;-71
2022/04/23 10:40:05;;;;;;;15.80;8.50;;;16.10;52.60;;;;;;5136066;27;20371;-72
2022/04/23 10:42:32;;;;;;;10.70;8.30;;;15.90;52.70;;;;;;5135792;27;20756;-70
2022/04/23 10:45:03;;;;;;;10.00;8.00;;;15.90;53.60;;;;;;5135666;27;20732;-72
2022/04/23 10:47:39;;;;;;;12.87;7.93;;;16.00;54.00;;;;;;5135931;27;20340;-75
2022/04/23 10:50:15;;;;;;;10.40;7.80;;;16.10;53.80;;;;;;5135586;27;20355;-80
2022/04/23 10:52:41;;;;;;;11.43;8.17;;;16.20;52.50;;;;;;5135800;27;20332;-78
2022/04/23 10:55:08;;;;;;;11.60;8.23;;;16.20;52.60;;;;;;5135343;27;20284;-77
2022/04/23 10:57:34;;;;;;;9.40;7.67;;;16.20;52.30;;;;;;5134798;27;20273;-76
2022/04/23 11:00:41;;;;;;;10.93;7.97;;;16.20;52.40;;;;;;5135432;27;20276;-75
2022/04/23 11:03:08;;;;;;;11.10;8.30;;;16.00;53.00;;;;;;5123273;27;20660;-77
2022/04/23 11:14:07;;;;;;;13.93;8.03;;;16.00;52.50;;;;;;5135138;27;20316;-79
2022/04/23 11:16:34;;;;;;;10.70;8.03;;;16.00;52.50;;;;;;5135343;27;20333;-76
2022/04/23 11:19:01;;;;;;;10.47;7.90;;;16.00;52.30;;;;;;5134882;27;20281;-73
2022/04/23 11:21:32;;;;;;;10.97;8.10;;;16.20;51.30;;;;;;5135318;27;20345;-74
2022/04/23 11:24:00;;;;;;;10.57;7.57;;;16.20;51.80;;;;;;5133497;27;20329;-74
2022/04/23 11:26:44;;;;;;;9.60;7.67;;;16.20;52.10;;;;;;5135049;27;20284;-74
2022/04/23 11:29:10;;;;;;;9.97;7.80;;;;;;;;;;5134761;27;20280;-74
2022/04/23 11:31:36;;;;;;;12.17;8.47;;;16.30;90.50;;;;;;5133814;27;20285;-74
2022/04/23 11:34:03;;;;;;;10.37;7.70;;;16.30;51.90;;;;;;5134640;27;20280;-74
2022/04/23 11:36:31;;;;;;;11.03;7.80;;;16.30;51.60;;;;;;5134893;27;20047;-74
2022/04/23 11:38:59;;;;;;;12.30;8.10;;;16.50;51.20;;;;;;5134281;27;20769;-73
2022/04/23 11:41:35;;;;;;;12.00;8.03;;;16.50;50.70;;;;;;5134967;27;20289;-74
2022/04/23 11:44:45;;;;;;;12.47;8.03;;;16.60;50.60;;;;;;5132873;27;20366;-74
2022/04/23 11:47:13;;;;;;;14.63;7.70;;;16.50;50.60;;;;;;5127550;27;20690;-73
2022/04/23 11:49:39;;;;;;;12.73;8.43;;;16.50;50.10;;;;;;5134841;27;20281;-74
2022/04/23 11:52:13;;;;;;;10.27;7.23;;;16.50;50.60;;;;;;5134403;27;20280;-73
2022/04/23 11:54:48;;;;;;;10.23;7.03;;;16.40;51.00;;;;;;5133408;27;20039;-74
2022/04/23 11:57:16;;;;;;;11.70;7.20;;;16.50;50.80;;;;;;5133356;27;20352;-72
2022/04/23 11:59:49;;;;;;;11.10;8.30;;;16.50;50.00;;;;;;5134189;27;20273;-72
2022/04/23 12:02:22;;;;;;;10.17;6.70;;;16.60;49.30;;;;;;5134286;27;20292;-73
2022/04/23 12:04:49;;;;;;;11.77;7.80;;;16.50;49.60;;;;;;5134467;27;20343;-81
2022/04/23 12:07:16;;;;;;;11.40;7.03;;;;;;;;;;5134116;27;20316;-74
2022/04/23 12:09:46;;;;;;;10.93;7.10;;;;;;;;;;5134301;27;20281;-76
2022/04/23 12:12:19;;;;;;;9.33;7.47;;;16.80;48.10;;;;;;5133962;27;20395;-74
2022/04/23 12:14:46;;;;;;;10.60;7.23;;;16.90;47.80;;;;;;5134524;27;20268;-78
2022/04/23 12:17:29;;;;;;;8.37;7.10;;;16.90;48.00;;;;;;5133541;27;20280;-76
2022/04/23 12:19:59;;;;;;;10.40;6.50;;;16.80;47.40;;;;;;5133914;27;20284;-75
2022/04/23 12:22:32;;;;;;;8.40;6.50;;;16.80;46.50;;;;;;5133934;27;20321;-74
2022/04/23 12:25:07;;;;;;;9.57;6.90;;;16.80;46.80;;;;;;5134254;27;20277;-74
2022/04/23 12:27:52;;;;;;;;;;;16.90;46.80;;;;;;5134465;27;20316;-81
2022/04/23 12:41:24;;;;;;;7.83;6.10;;;17.00;46.70;;;;;;5132586;27;20660;-75
2022/04/23 12:43:52;;;;;;;9.77;6.57;;;17.00;45.60;;;;;;5133626;28;20281;-75
2022/04/23 12:46:17;;;;;;;8.47;6.00;;;16.90;44.80;;;;;;5133282;28;20425;-74
2022/04/23 12:49:00;;;;;;;10.17;6.30;;;16.90;45.50;;;;;;5134093;28;20334;-76
2022/04/23 12:51:26;;;;;;;8.40;6.53;;;17.00;45.60;;;;;;5132378;28;20044;-76
2022/04/23 12:53:52;;;;;;;18.50;6.93;;;16.90;45.20;;;;;;5134170;28;20280;-76
2022/04/23 12:56:19;;;;;;;10.53;6.03;;;17.00;44.10;;;;;;5132263;28;20276;-75
2022/04/23 12:58:45;;;;;;;8.27;5.70;;;17.00;44.80;;;;;;5133791;28;20047;-75
2022/04/23 13:01:12;;;;;;;8.37;6.30;;;17.00;45.00;;;;;;5133431;28;20316;-75
2022/04/23 13:03:43;;;;;;;10.20;6.00;;;16.90;44.80;;;;;;5132689;28;20288;-74
2022/04/23 13:08:57;;;;;;;8.00;6.20;;;17.00;45.30;;;;;;5133546;28;20464;-75
2022/04/23 13:11:33;;;;;;;8.13;5.77;;;17.30;44.50;;;;;;5133469;28;20288;-75
2022/04/23 13:14:04;;;;;;;8.20;5.50;;;17.30;43.60;;;;;;5132536;28;20741;-73
2022/04/23 13:16:32;;;;;;;8.40;4.80;;;17.30;44.10;;;;;;5133421;28;20360;-75
2022/04/23 13:18:59;;;;;;;8.07;5.60;;;17.20;43.50;;;;;;5133527;28;20284;-72
2022/04/23 13:21:30;;;;;;;8.80;5.90;;;17.20;43.40;;;;;;5133235;28;20293;-71
2022/04/23 13:23:56;;;;;;;7.13;5.70;;;17.20;43.20;;;;;;5133489;28;20279;-70
2022/04/23 13:26:24;;;;;;;11.53;5.50;;;17.20;43.80;;;;;;5133268;28;20285;-74
2022/04/23 13:28:50;;;;;;;9.17;6.00;;;17.10;43.70;;;;;;5133544;28;20281;-85
2022/04/23 13:31:16;;;;;;;9.63;5.40;;;17.20;43.60;;;;;;5134519;27;20276;-74